Mc Guire AFB

About
Name: Mc Guire AFB
Identifier:  WRI/KWRI
Local Time:  15. Sep 10:25 EDT
Description: During World War II, the United States Army Air Forces established numerous airfields in New Jersey for training pilots and aircrews of USAAF fighters and bombers.
Source: Wikipedia
Location
Wrightstown
  United States

Statistics
Flights per Day:
0 flights
Distance: 2,251km (1,398mi)
Flights delayed:
66% (0 flights per day delayed)
Delay Average: 18 minutes
Current Weather
 23 C (Humidity: 78%)
  7kt (12km/h / 8mph) from 360°
  Scattered clouds at 1,500 feet (457 meter)
  16km (10 mi.)
 METAR KWRI 151346Z AUTO 36007KT 10SM SCT015 23/19 A3017 RMK AO2 SLPNO $

Current Delays

Departures
N/A
Arrivals
N/A

Destinations

Top Destinations
Airport Flights
per week
Seats
per week
  Ramstein (RMS) 0 - 0 0
  Wilmington (ILN) 0 12 0 1
  Dover (DOV) 0 - 0 0
  Miami (MIA) 0 - 0 0
  Norfolk (NGU) 0 - 0 0
  Fort Campbell (HOP) 0 - 0 0
  Chicago (ORD) 0 - 0 0

Airlines & Planes

Top Airlines
Airline Flights
per Day
Seats
per Day
  Atlas Air 0 -
  ABX Air 0 0
  Air Transport International 0 1
  Kalitta Air 0 -
Top Plane Types
Model Flights Seats
Boeing B747-400 0.2/day - 0
Boeing B767-200 0.1/day - -0.1
Boeing B757-200 0.1/day 1/day 1.7666666666666666